createdAt,value
2016-08-01T12:43:29.228Z,1002.87
2016-08-01T12:44:29.251Z,1002.85
2016-08-01T12:45:29.276Z,1002.81
2016-08-01T12:46:29.298Z,1002.82
2016-08-01T12:47:29.321Z,1002.84
2016-08-01T12:48:29.342Z,1002.78
2016-08-01T20:14:16.027Z,1002.19
2016-08-01T20:15:16.044Z,1002.21
2016-08-01T20:16:16.069Z,1002.18
2016-08-01T20:17:16.082Z,1002.15
2016-08-01T20:18:16.102Z,1002.16
2016-08-01T20:19:16.121Z,1002.16
2016-08-01T20:20:16.142Z,1002.17
2016-08-01T20:21:16.161Z,1002.18
2016-08-01T20:22:16.177Z,1002.19
2016-08-01T20:23:16.198Z,1002.19
2016-08-01T20:24:16.214Z,1002.2
2016-08-01T20:25:16.235Z,1002.2
2016-08-01T20:26:16.253Z,1002.24
2016-08-01T20:27:16.269Z,1002.22
2016-08-01T20:28:16.291Z,1002.19
2016-08-01T20:29:16.308Z,1002.19
2016-08-01T20:30:16.324Z,1002.2
2016-08-01T20:31:16.343Z,1002.18
2016-08-01T20:32:16.362Z,1002.21
2016-08-01T20:33:16.383Z,1002.19
2016-08-01T20:34:16.396Z,1002.22
2016-08-01T20:35:16.423Z,1002.21
2016-08-01T20:36:16.434Z,1002.16
2016-08-01T20:37:16.452Z,1002.18
2016-08-01T20:38:16.471Z,1002.13
2016-08-01T20:39:16.493Z,1002.12
2016-08-01T20:40:16.509Z,1002.16
2016-08-01T20:41:16.527Z,1002.19
2016-08-01T20:42:16.545Z,1002.18
2016-08-01T20:43:16.562Z,1002.26
2016-08-01T20:44:16.584Z,1002.24
2016-08-01T20:45:16.602Z,1002.22
2016-08-01T20:46:16.615Z,1002.2
2016-08-01T20:47:16.638Z,1002.18
2016-08-01T20:48:16.655Z,1002.21
2016-08-01T20:49:16.674Z,1002.2
2016-08-01T20:50:16.695Z,1002.23
2016-08-01T20:51:16.711Z,1002.21
2016-08-01T20:52:16.729Z,1002.24
2016-08-01T20:53:16.747Z,1002.19
2016-08-01T20:54:16.767Z,1002.2
2016-08-01T20:55:16.785Z,1002.24
2016-08-01T20:56:16.806Z,1002.24
2016-08-01T20:57:16.823Z,1002.22
2016-08-01T20:58:16.842Z,1002.16
2016-08-01T20:59:16.862Z,1002.13
2016-08-01T21:00:16.877Z,1002.19
2016-08-01T21:01:16.896Z,1002.18
2016-08-01T21:02:16.911Z,1002.19
2016-08-01T21:03:16.934Z,1002.22
2016-08-01T21:04:16.950Z,1002.16
2016-08-01T21:05:16.971Z,1002.16
2016-08-01T21:06:16.987Z,1002.17
2016-08-01T21:07:17.006Z,1002.17
2016-08-01T21:08:17.022Z,1002.18
2016-08-01T21:09:17.040Z,1002.18
2016-08-01T21:10:17.059Z,1002.17
2016-08-01T21:11:17.078Z,1002.17
2016-08-01T21:12:17.096Z,1002.2
2016-08-01T21:13:17.114Z,1002.15
2016-08-01T21:14:17.128Z,1002.13
2016-08-01T21:15:17.151Z,1002.1
2016-08-01T21:16:17.168Z,1002.11
2016-08-01T21:17:17.186Z,1002.07
2016-08-01T21:18:17.205Z,1002.07
2016-08-01T21:19:17.222Z,1002.09
2016-08-01T21:20:17.239Z,1002.13
2016-08-01T21:21:17.258Z,1002.15
2016-08-01T21:22:17.280Z,1002.08
2016-08-01T21:23:17.297Z,1002.1
2016-08-01T21:24:17.313Z,1002.07
2016-08-01T21:25:17.333Z,1002.06
2016-08-01T21:26:17.351Z,1002.01
2016-08-01T21:27:17.373Z,1001.96
2016-08-01T21:28:17.388Z,1001.94
2016-08-01T21:29:17.404Z,1001.91
2016-08-01T21:30:17.422Z,1001.91
2016-08-01T21:31:17.441Z,1001.93
2016-08-01T21:32:17.462Z,1001.95
2016-08-01T21:33:17.478Z,1001.95
2016-08-01T21:34:17.494Z,1001.89
2016-08-01T21:35:17.514Z,1001.87
2016-08-01T21:36:17.536Z,1001.82
2016-08-01T21:37:17.548Z,1001.91
2016-08-01T21:38:17.573Z,1001.87
2016-08-01T21:39:17.589Z,1001.89
2016-08-01T21:40:17.605Z,1001.94
2016-08-01T21:41:17.628Z,1001.94
2016-08-01T21:42:17.643Z,1001.9
2016-08-01T21:43:17.664Z,1001.87
2016-08-01T21:44:17.682Z,1001.85
2016-08-01T21:45:17.699Z,1001.9
2016-08-01T21:46:17.719Z,1001.86
2016-08-01T21:47:17.737Z,1001.89
2016-08-01T21:48:17.753Z,1001.86
2016-08-01T21:49:17.775Z,1001.89
2016-08-01T21:50:17.791Z,1001.88
2016-08-01T21:51:17.810Z,1001.87
2016-08-01T21:52:17.830Z,1001.88
2016-08-01T21:53:17.847Z,1001.85
2016-08-01T21:54:17.867Z,1001.84
2016-08-01T21:55:17.884Z,1001.84
2016-08-01T21:56:17.901Z,1001.86
2016-08-01T21:57:17.917Z,1001.86
2016-08-01T21:58:17.939Z,1001.88
2016-08-01T21:59:17.954Z,1001.9
2016-08-01T22:00:17.973Z,1001.86
2016-08-01T22:01:17.989Z,1001.88
2016-08-01T22:02:18.012Z,1001.86
2016-08-01T22:03:18.029Z,1001.85
2016-08-01T22:04:18.046Z,1001.84
2016-08-01T22:05:18.074Z,1001.85
2016-08-01T22:06:18.089Z,1001.84
2016-08-01T22:07:18.100Z,1001.81
2016-08-01T22:08:18.119Z,1001.86
2016-08-01T22:09:18.141Z,1001.83
2016-08-01T22:10:18.158Z,1001.85
2016-08-01T22:11:18.177Z,1001.83
2016-08-01T22:12:18.193Z,1001.8
2016-08-01T22:13:18.212Z,1001.82
2016-08-01T22:14:18.231Z,1001.78
2016-08-01T22:15:18.247Z,1001.77
2016-08-01T22:16:18.271Z,1001.77
2016-08-01T22:17:18.284Z,1001.76
2016-08-01T22:18:18.305Z,1001.74
2016-08-01T22:19:18.323Z,1001.78
2016-08-01T22:20:18.343Z,1001.78
2016-08-01T22:21:18.361Z,1001.79
2016-08-01T22:22:18.378Z,1001.76
2016-08-01T22:24:18.420Z,1001.74
2016-08-01T22:25:18.437Z,1001.75
2016-08-01T22:26:18.456Z,1001.78
2016-08-01T22:27:18.472Z,1001.75
2016-08-01T22:28:18.494Z,1001.76
2016-08-01T22:29:18.511Z,1001.74
2016-08-01T22:30:18.526Z,1001.72
2016-08-01T22:31:18.550Z,1001.7
2016-08-01T22:32:18.566Z,1001.71
2016-08-01T22:33:18.583Z,1001.7
2016-08-01T22:34:18.603Z,1001.74
2016-08-01T22:35:18.617Z,1001.73
2016-08-01T22:36:18.638Z,1001.66
2016-08-01T22:37:18.657Z,1001.63
2016-08-01T22:39:18.693Z,1001.59
2016-08-01T22:40:18.716Z,1001.61
2016-08-01T22:41:18.739Z,1001.66
2016-08-01T22:42:18.750Z,1001.64
2016-08-01T22:43:18.772Z,1001.67
2016-08-01T22:44:18.787Z,1001.69
2016-08-01T22:45:18.803Z,1001.69
2016-08-01T22:46:18.825Z,1001.66
2016-08-01T22:47:18.842Z,1001.68
2016-08-01T22:48:18.860Z,1001.66
2016-08-01T22:49:18.878Z,1001.69
2016-08-01T22:50:18.897Z,1001.67
2016-08-01T22:51:18.916Z,1001.66
2016-08-01T22:52:18.933Z,1001.66
2016-08-01T22:54:18.975Z,1001.59
2016-08-01T22:55:18.990Z,1001.6
2016-08-01T22:56:19.009Z,1001.58
2016-08-01T22:57:19.030Z,1001.58
2016-08-01T22:58:19.050Z,1001.58
2016-08-01T22:59:19.064Z,1001.61
2016-08-01T23:00:19.079Z,1001.66
2016-08-01T23:01:19.100Z,1001.6
2016-08-01T23:02:19.122Z,1001.62
2016-08-01T23:03:19.134Z,1001.53
2016-08-01T23:04:19.158Z,1001.47
2016-08-01T23:05:19.173Z,1001.45
2016-08-01T23:06:19.194Z,1001.49
2016-08-01T23:07:19.213Z,1001.57
2016-08-01T23:09:19.249Z,1001.63
2016-08-01T23:10:19.266Z,1001.62
2016-08-01T23:11:19.287Z,1001.63
2016-08-01T23:12:19.306Z,1001.59
2016-08-01T23:13:19.320Z,1001.59
2016-08-01T23:14:19.342Z,1001.6
2016-08-01T23:15:19.358Z,1001.6
2016-08-01T23:16:19.380Z,1001.56
2016-08-01T23:17:19.398Z,1001.57
2016-08-01T23:18:19.415Z,1001.53
2016-08-01T23:19:19.433Z,1001.57
2016-08-01T23:20:19.452Z,1001.55
2016-08-01T23:21:19.470Z,1001.54
2016-08-01T23:22:19.493Z,1001.48
2016-08-01T23:24:19.528Z,1001.53
2016-08-01T23:25:19.546Z,1001.53
2016-08-01T23:26:19.562Z,1001.49
2016-08-01T23:27:19.582Z,1001.51
2016-08-01T23:28:19.600Z,1001.52
2016-08-01T23:29:19.621Z,1001.5
2016-08-01T23:30:19.635Z,1001.43
2016-08-01T23:31:19.656Z,1001.43
2016-08-01T23:32:19.681Z,1001.36
2016-08-01T23:33:19.689Z,1001.39
2016-08-01T23:34:19.711Z,1001.38
2016-08-01T23:35:19.730Z,1001.39
2016-08-01T23:36:19.746Z,1001.34
2016-08-01T23:37:19.768Z,1001.39
2016-08-01T23:38:19.785Z,1001.39
2016-08-01T23:39:19.800Z,1001.35
2016-08-01T23:40:19.821Z,1001.37
2016-08-01T23:41:19.838Z,1001.34
2016-08-01T23:42:19.861Z,1001.32
2016-08-01T23:43:19.879Z,1001.27
2016-08-01T23:44:19.892Z,1001.26
2016-08-01T23:45:19.912Z,1001.3
2016-08-01T23:46:19.930Z,1001.26
2016-08-01T23:47:19.947Z,1001.23
2016-08-01T23:48:19.967Z,1001.2
2016-08-01T23:49:19.984Z,1001.14
2016-08-01T23:50:20.008Z,1001.13
2016-08-01T23:51:20.023Z,1001.19
2016-08-01T23:52:20.043Z,1001.14
2016-08-01T23:53:20.060Z,1001.11
2016-08-01T23:54:20.081Z,1001.08
2016-08-01T23:56:20.115Z,1001.11
2016-08-01T23:57:20.132Z,1001.09
2016-08-01T23:58:20.154Z,1001.13
2016-08-01T23:59:20.172Z,1001.13
